createdAt,value
2023-04-20T00:00:11.557Z,5.56
2023-04-20T00:02:40.388Z,5.60
2023-04-20T00:05:11.923Z,5.67
2023-04-20T00:07:38.776Z,5.72
2023-04-20T00:10:06.222Z,5.66
2023-04-20T00:12:32.824Z,5.60
2023-04-20T00:14:59.617Z,5.67
2023-04-20T00:17:26.626Z,5.81
2023-04-20T00:19:53.342Z,5.86
2023-04-20T00:22:19.998Z,5.87
2023-04-20T00:24:47.391Z,5.79
2023-04-20T00:27:14.023Z,5.64
2023-04-20T00:29:40.713Z,5.52
2023-04-20T00:32:08.882Z,5.49
2023-04-20T00:34:35.997Z,5.48
2023-04-20T00:37:02.575Z,5.46
2023-04-20T00:39:29.183Z,5.39
2023-04-20T00:42:04.398Z,5.31
2023-04-20T00:44:32.072Z,5.27
2023-04-20T00:46:58.699Z,5.21
2023-04-20T00:49:30.536Z,5.25
2023-04-20T00:52:01.344Z,5.26
2023-04-20T00:54:29.993Z,5.30
2023-04-20T00:56:58.144Z,5.34
2023-04-20T00:59:29.364Z,5.41
2023-04-20T01:01:56.157Z,5.39
2023-04-20T01:04:23.009Z,5.46
2023-04-20T01:06:49.763Z,5.43
2023-04-20T01:09:16.591Z,5.39
2023-04-20T01:11:43.437Z,5.39
2023-04-20T01:14:10.075Z,5.34
2023-04-20T01:16:36.973Z,5.27
2023-04-20T01:19:03.806Z,5.30
2023-04-20T01:21:31.940Z,5.32
2023-04-20T01:23:58.552Z,5.26
2023-04-20T01:26:25.882Z,5.22
2023-04-20T01:28:52.600Z,5.19
2023-04-20T01:31:19.856Z,5.19
2023-04-20T01:33:46.545Z,5.19
2023-04-20T01:36:13.577Z,5.18
2023-04-20T01:38:40.683Z,5.26
2023-04-20T01:41:09.123Z,5.26
2023-04-20T01:43:37.425Z,5.25
2023-04-20T01:46:05.013Z,5.23
2023-04-20T01:48:31.934Z,5.15
2023-04-20T01:50:58.626Z,5.10
2023-04-20T01:53:27.071Z,5.10
2023-04-20T01:55:54.500Z,5.09
2023-04-20T01:58:21.934Z,5.09
2023-04-20T02:00:48.671Z,5.10
2023-04-20T02:03:15.408Z,5.08
2023-04-20T02:05:42.565Z,5.11
2023-04-20T02:08:09.166Z,5.14
2023-04-20T02:10:35.875Z,5.10
2023-04-20T02:13:02.489Z,5.05
2023-04-20T02:15:29.309Z,5.01
2023-04-20T02:17:55.929Z,5.01
2023-04-20T02:20:24.257Z,5.04
2023-04-20T02:22:50.857Z,5.12
2023-04-20T02:25:18.021Z,5.19
2023-04-20T02:27:44.638Z,5.21
2023-04-20T02:30:11.826Z,5.24
2023-04-20T02:32:38.933Z,5.25
2023-04-20T02:35:07.467Z,5.26
2023-04-20T02:37:34.032Z,5.28
2023-04-20T02:40:00.707Z,5.29
2023-04-20T02:42:27.419Z,5.32
2023-04-20T02:44:54.064Z,5.34
2023-04-20T02:47:20.770Z,5.38
2023-04-20T02:49:48.251Z,5.38
2023-04-20T02:52:15.148Z,5.39
2023-04-20T02:54:42.563Z,5.46
2023-04-20T02:57:11.046Z,5.49
2023-04-20T02:59:38.252Z,5.52
2023-04-20T03:02:05.381Z,5.60
2023-04-20T03:04:32.677Z,5.62
2023-04-20T03:07:00.463Z,5.69
2023-04-20T03:09:28.004Z,5.79
2023-04-20T03:11:54.674Z,5.84
2023-04-20T03:14:21.497Z,5.90
2023-04-20T03:16:48.161Z,5.99
2023-04-20T03:19:16.097Z,6.04
2023-04-20T03:21:44.349Z,6.04
2023-04-20T03:24:10.955Z,6.14
2023-04-20T03:26:37.682Z,6.20
2023-04-20T03:29:04.368Z,6.23
2023-04-20T03:31:30.943Z,6.28
2023-04-20T03:33:59.958Z,6.33
2023-04-20T03:36:28.386Z,6.38
2023-04-20T03:38:55.022Z,6.43
2023-04-20T03:41:23.017Z,6.51
2023-04-20T03:43:49.588Z,6.58
2023-04-20T03:46:16.322Z,6.69
2023-04-20T03:48:43.621Z,6.78
2023-04-20T03:51:10.768Z,6.89
2023-04-20T03:53:39.431Z,6.95
2023-04-20T03:56:08.390Z,7.04
2023-04-20T03:58:34.945Z,7.10
2023-04-20T04:01:09.557Z,7.18
2023-04-20T04:03:36.701Z,7.20
2023-04-20T04:06:04.178Z,7.28
2023-04-20T04:08:32.297Z,7.37
2023-04-20T04:11:00.252Z,7.42
2023-04-20T04:13:26.953Z,7.50
2023-04-20T04:15:53.675Z,7.57
2023-04-20T04:18:21.792Z,7.62
2023-04-20T04:20:48.528Z,7.64
2023-04-20T04:23:15.441Z,7.68
2023-04-20T04:25:42.344Z,7.71
2023-04-20T04:28:09.082Z,7.77
